This is the latest recevied weather packets stored in our database for station/object UB3AVW-10. If no packets are shown the sender has not sent any weather packets the latest 10 day(s).
| Time | Temp. | Humidity | Pressure | Rain* | Wind** | Luminosity | Snow |
|---|---|---|---|---|---|---|---|
| 1777828437 | 18.89° C | 35% | 987.6 hPa | - | 2.68 m/s, 216° | - | - |
| 1777828133 | 18.89° C | 35% | 987.6 hPa | - | 3.58 m/s, 240° | - | - |
| 1777827830 | 18.89° C | 35% | 987.6 hPa | - | 3.58 m/s, 240° | - | - |
| 1777827720 | 18.89° C | 35% | 986.7 hPa | - | 3.58 m/s, 240° | - | - |
| 1777827526 | 18.89° C | 35% | 986.7 hPa | - | 3.58 m/s, 240° | - | - |
| 1777827223 | 18.89° C | 35% | 987.6 hPa | - | 3.58 m/s, 240° | - | - |
| 1777826919 | 18.89° C | 34% | 987.6 hPa | - | 3.58 m/s, 240° | - | - |
| 1777826616 | 18.89° C | 34% | 987.6 hPa | - | 3.58 m/s, 240° | - | - |
| 1777826313 | 20.56° C | 28% | 987.7 hPa | - | 5.81 m/s, 250° | - | - |
| 1777826009 | 20.56° C | 27% | 987.7 hPa | - | 5.81 m/s, 250° | - | - |
| 1777825898 | 20.56° C | 27% | 986.9 hPa | - | 5.81 m/s, 250° | - | - |
| 1777825706 | 20.56° C | 27% | 986.9 hPa | - | 5.81 m/s, 250° | - | - |
| 1777825403 | 20.56° C | 27% | 986.9 hPa | - | 5.81 m/s, 250° | - | - |
| 1777825100 | 20.56° C | 32% | 987.7 hPa | - | 5.81 m/s, 250° | - | - |
| 1777824796 | 20.56° C | 32% | 987.7 hPa | - | 5.81 m/s, 250° | - | - |
| 1777824493 | 20.56° C | 32% | 986.9 hPa | - | 5.81 m/s, 251° | - | - |
| 1777824189 | 20.56° C | 32% | 987.7 hPa | - | 4.92 m/s, 260° | - | - |
| 1777824078 | 20.56° C | 32% | 986.9 hPa | - | 4.92 m/s, 260° | - | - |
| 1777823886 | 20.56° C | 32% | 986.9 hPa | - | 4.92 m/s, 260° | - | - |
| 1777823582 | 21.11° C | 32% | 987.8 hPa | - | 4.92 m/s, 260° | - | - |
| 1777823279 | 21.11° C | 34% | 987.8 hPa | - | 4.92 m/s, 251° | - | - |
| 1777822976 | 21.11° C | 34% | 987.8 hPa | - | 4.92 m/s, 251° | - | - |
| 1777822673 | 21.11° C | 35% | 987.8 hPa | - | 5.81 m/s, 221° | - | - |
| 1777822369 | 21.11° C | 35% | 987.8 hPa | - | 5.81 m/s, 221° | - | - |
| 1777822318 | 21.11° C | 35% | 987.8 hPa | - | 6.71 m/s, 230° | - | - |
* Rain since midnight (hover to see other rain measurements)
** Current wind speed in m/s (hover to see current wind gust speed)